sensor_id;sensor_type;location;lat;lon;timestamp;P1;durP1;ratioP1;P2;durP2;ratioP2
77495;SDS011;66600;48.378;9.948;2023-05-10T00:01:01;4.80;;;3.00;;
77495;SDS011;66600;48.378;9.948;2023-05-10T00:03:27;4.40;;;3.15;;
77495;SDS011;66600;48.378;9.948;2023-05-10T00:05:53;5.00;;;3.42;;
77495;SDS011;66600;48.378;9.948;2023-05-10T00:08:18;4.88;;;3.50;;
77495;SDS011;66600;48.378;9.948;2023-05-10T00:10:43;5.25;;;3.40;;
77495;SDS011;66600;48.378;9.948;2023-05-10T00:13:08;5.25;;;3.80;;
77495;SDS011;66600;48.378;9.948;2023-05-10T00:15:34;6.50;;;4.13;;
77495;SDS011;66600;48.378;9.948;2023-05-10T00:17:59;5.25;;;4.15;;
77495;SDS011;66600;48.378;9.948;2023-05-10T00:20:25;5.55;;;4.13;;
77495;SDS011;66600;48.378;9.948;2023-05-10T00:22:50;6.00;;;4.60;;
77495;SDS011;66600;48.378;9.948;2023-05-10T00:25:15;5.43;;;3.90;;
77495;SDS011;66600;48.378;9.948;2023-05-10T00:27:41;4.72;;;3.67;;
77495;SDS011;66600;48.378;9.948;2023-05-10T00:30:06;4.45;;;3.60;;
77495;SDS011;66600;48.378;9.948;2023-05-10T00:32:32;4.78;;;3.65;;
77495;SDS011;66600;48.378;9.948;2023-05-10T00:34:57;4.78;;;3.28;;
77495;SDS011;66600;48.378;9.948;2023-05-10T00:37:23;5.18;;;3.42;;
77495;SDS011;66600;48.378;9.948;2023-05-10T00:39:48;5.43;;;3.08;;
77495;SDS011;66600;48.378;9.948;2023-05-10T00:42:14;4.05;;;3.10;;
77495;SDS011;66600;48.378;9.948;2023-05-10T00:44:39;6.00;;;3.50;;
77495;SDS011;66600;48.378;9.948;2023-05-10T00:47:04;3.88;;;3.30;;
77495;SDS011;66600;48.378;9.948;2023-05-10T00:49:30;4.43;;;3.42;;
77495;SDS011;66600;48.378;9.948;2023-05-10T00:51:56;4.30;;;3.42;;
77495;SDS011;66600;48.378;9.948;2023-05-10T00:54:21;4.75;;;3.05;;
77495;SDS011;66600;48.378;9.948;2023-05-10T00:56:47;4.35;;;3.30;;
77495;SDS011;66600;48.378;9.948;2023-05-10T00:59:14;5.43;;;3.60;;
77495;SDS011;66600;48.378;9.948;2023-05-10T01:01:41;4.60;;;3.22;;
77495;SDS011;66600;48.378;9.948;2023-05-10T01:04:07;4.63;;;3.50;;
77495;SDS011;66600;48.378;9.948;2023-05-10T01:06:34;5.75;;;3.35;;
77495;SDS011;66600;48.378;9.948;2023-05-10T01:09:00;4.10;;;2.92;;
77495;SDS011;66600;48.378;9.948;2023-05-10T01:11:25;5.50;;;3.40;;
77495;SDS011;66600;48.378;9.948;2023-05-10T01:13:52;4.30;;;3.10;;
77495;SDS011;66600;48.378;9.948;2023-05-10T01:16:21;4.22;;;3.33;;
77495;SDS011;66600;48.378;9.948;2023-05-10T01:18:47;5.15;;;3.22;;
77495;SDS011;66600;48.378;9.948;2023-05-10T01:21:18;3.75;;;2.92;;
77495;SDS011;66600;48.378;9.948;2023-05-10T01:27:01;3.97;;;2.65;;
77495;SDS011;66600;48.378;9.948;2023-05-10T01:35:43;4.43;;;2.92;;
77495;SDS011;66600;48.378;9.948;2023-05-10T01:38:50;4.38;;;3.15;;
77495;SDS011;66600;48.378;9.948;2023-05-10T01:49:56;5.45;;;3.03;;
77495;SDS011;66600;48.378;9.948;2023-05-10T01:55:32;3.92;;;2.53;;
77495;SDS011;66600;48.378;9.948;2023-05-10T01:58:00;3.22;;;2.13;;
77495;SDS011;66600;48.378;9.948;2023-05-10T02:00:33;3.00;;;2.03;;
77495;SDS011;66600;48.378;9.948;2023-05-10T02:03:00;3.47;;;1.90;;
77495;SDS011;66600;48.378;9.948;2023-05-10T02:05:30;3.10;;;1.83;;
77495;SDS011;66600;48.378;9.948;2023-05-10T02:07:57;2.60;;;1.60;;
77495;SDS011;66600;48.378;9.948;2023-05-10T02:10:23;1.85;;;1.17;;
77495;SDS011;66600;48.378;9.948;2023-05-10T02:12:49;1.17;;;0.90;;
77495;SDS011;66600;48.378;9.948;2023-05-10T02:15:17;0.93;;;0.70;;
77495;SDS011;66600;48.378;9.948;2023-05-10T02:17:46;1.58;;;0.82;;
77495;SDS011;66600;48.378;9.948;2023-05-10T02:20:11;0.73;;;0.52;;
77495;SDS011;66600;48.378;9.948;2023-05-10T02:22:38;0.57;;;0.40;;
77495;SDS011;66600;48.378;9.948;2023-05-10T02:25:05;0.73;;;0.40;;
77495;SDS011;66600;48.378;9.948;2023-05-10T02:27:33;1.60;;;0.45;;
77495;SDS011;66600;48.378;9.948;2023-05-10T02:29:59;0.30;;;0.30;;
77495;SDS011;66600;48.378;9.948;2023-05-10T02:32:26;0.55;;;0.40;;
77495;SDS011;66600;48.378;9.948;2023-05-10T02:34:52;0.90;;;0.40;;
77495;SDS011;66600;48.378;9.948;2023-05-10T02:37:19;0.88;;;0.32;;
77495;SDS011;66600;48.378;9.948;2023-05-10T02:39:47;0.30;;;0.30;;
77495;SDS011;66600;48.378;9.948;2023-05-10T02:42:18;1.63;;;0.40;;
77495;SDS011;66600;48.378;9.948;2023-05-10T02:44:48;0.77;;;0.20;;
77495;SDS011;66600;48.378;9.948;2023-05-10T02:47:15;0.30;;;0.30;;
77495;SDS011;66600;48.378;9.948;2023-05-10T02:49:41;1.20;;;0.40;;
77495;SDS011;66600;48.378;9.948;2023-05-10T02:52:07;0.20;;;0.20;;
77495;SDS011;66600;48.378;9.948;2023-05-10T02:54:35;0.68;;;0.20;;
77495;SDS011;66600;48.378;9.948;2023-05-10T02:57:08;0.93;;;0.43;;
77495;SDS011;66600;48.378;9.948;2023-05-10T02:59:39;2.03;;;0.40;;
77495;SDS011;66600;48.378;9.948;2023-05-10T03:02:07;0.20;;;0.20;;
77495;SDS011;66600;48.378;9.948;2023-05-10T03:04:34;0.28;;;0.28;;
77495;SDS011;66600;48.378;9.948;2023-05-10T03:06:59;0.55;;;0.30;;
77495;SDS011;66600;48.378;9.948;2023-05-10T03:09:24;0.20;;;0.20;;
77495;SDS011;66600;48.378;9.948;2023-05-10T03:11:55;0.22;;;0.22;;
77495;SDS011;66600;48.378;9.948;2023-05-10T03:17:19;0.35;;;0.35;;
77495;SDS011;66600;48.378;9.948;2023-05-10T03:19:52;3.08;;;0.82;;
77495;SDS011;66600;48.378;9.948;2023-05-10T03:22:25;0.50;;;0.40;;
77495;SDS011;66600;48.378;9.948;2023-05-10T03:24:55;1.67;;;0.50;;
77495;SDS011;66600;48.378;9.948;2023-05-10T03:27:23;3.83;;;1.45;;
77495;SDS011;66600;48.378;9.948;2023-05-10T03:29:50;3.28;;;1.40;;
77495;SDS011;66600;48.378;9.948;2023-05-10T03:32:16;1.80;;;1.30;;
77495;SDS011;66600;48.378;9.948;2023-05-10T03:34:41;2.13;;;0.93;;
77495;SDS011;66600;48.378;9.948;2023-05-10T03:37:08;1.05;;;0.85;;
77495;SDS011;66600;48.378;9.948;2023-05-10T03:39:33;1.08;;;0.60;;
77495;SDS011;66600;48.378;9.948;2023-05-10T03:41:59;2.10;;;0.50;;
77495;SDS011;66600;48.378;9.948;2023-05-10T03:44:24;1.65;;;0.60;;
77495;SDS011;66600;48.378;9.948;2023-05-10T03:46:49;1.30;;;0.60;;
77495;SDS011;66600;48.378;9.948;2023-05-10T03:49:14;0.50;;;0.50;;
77495;SDS011;66600;48.378;9.948;2023-05-10T03:51:40;1.35;;;0.85;;
77495;SDS011;66600;48.378;9.948;2023-05-10T03:54:05;5.38;;;0.80;;
77495;SDS011;66600;48.378;9.948;2023-05-10T03:56:30;3.33;;;0.75;;
77495;SDS011;66600;48.378;9.948;2023-05-10T03:58:56;1.00;;;0.60;;
77495;SDS011;66600;48.378;9.948;2023-05-10T04:01:21;1.27;;;0.77;;
77495;SDS011;66600;48.378;9.948;2023-05-10T04:03:46;2.25;;;0.70;;
77495;SDS011;66600;48.378;9.948;2023-05-10T04:06:12;0.93;;;0.80;;
77495;SDS011;66600;48.378;9.948;2023-05-10T04:08:37;1.73;;;0.80;;
77495;SDS011;66600;48.378;9.948;2023-05-10T04:11:06;1.80;;;0.95;;
77495;SDS011;66600;48.378;9.948;2023-05-10T04:13:33;2.45;;;0.90;;
77495;SDS011;66600;48.378;9.948;2023-05-10T04:15:58;2.85;;;1.05;;
77495;SDS011;66600;48.378;9.948;2023-05-10T04:18:24;3.92;;;1.80;;
77495;SDS011;66600;48.378;9.948;2023-05-10T04:20:49;2.83;;;1.58;;
77495;SDS011;66600;48.378;9.948;2023-05-10T04:23:14;3.47;;;2.08;;
77495;SDS011;66600;48.378;9.948;2023-05-10T04:25:41;3.63;;;2.60;;
77495;SDS011;66600;48.378;9.948;2023-05-10T04:28:07;6.57;;;4.13;;
77495;SDS011;66600;48.378;9.948;2023-05-10T04:30:32;11.95;;;4.40;;
77495;SDS011;66600;48.378;9.948;2023-05-10T04:33:00;5.72;;;3.60;;
77495;SDS011;66600;48.378;9.948;2023-05-10T04:37:52;4.72;;;2.50;;
77495;SDS011;66600;48.378;9.948;2023-05-10T04:40:17;4.18;;;2.42;;
77495;SDS011;66600;48.378;9.948;2023-05-10T04:42:43;4.43;;;2.80;;
77495;SDS011;66600;48.378;9.948;2023-05-10T04:45:08;5.10;;;2.67;;
77495;SDS011;66600;48.378;9.948;2023-05-10T04:47:34;4.28;;;2.58;;
77495;SDS011;66600;48.378;9.948;2023-05-10T04:50:00;2.67;;;1.95;;
77495;SDS011;66600;48.378;9.948;2023-05-10T04:52:25;3.35;;;1.92;;
77495;SDS011;66600;48.378;9.948;2023-05-10T04:54:51;4.97;;;1.92;;
77495;SDS011;66600;48.378;9.948;2023-05-10T04:57:16;2.65;;;1.60;;
77495;SDS011;66600;48.378;9.948;2023-05-10T04:59:41;4.38;;;1.67;;
77495;SDS011;66600;48.378;9.948;2023-05-10T05:02:07;4.05;;;1.90;;
77495;SDS011;66600;48.378;9.948;2023-05-10T05:04:32;4.20;;;1.75;;
77495;SDS011;66600;48.378;9.948;2023-05-10T05:06:58;3.55;;;1.40;;
77495;SDS011;66600;48.378;9.948;2023-05-10T05:09:23;4.88;;;1.42;;
77495;SDS011;66600;48.378;9.948;2023-05-10T05:11:50;3.05;;;1.58;;
77495;SDS011;66600;48.378;9.948;2023-05-10T05:14:15;3.92;;;1.85;;
77495;SDS011;66600;48.378;9.948;2023-05-10T05:16:40;3.08;;;1.10;;
77495;SDS011;66600;48.378;9.948;2023-05-10T05:19:06;2.28;;;1.10;;
77495;SDS011;66600;48.378;9.948;2023-05-10T05:21:31;1.75;;;1.30;;
77495;SDS011;66600;48.378;9.948;2023-05-10T05:23:57;4.03;;;1.65;;
77495;SDS011;66600;48.378;9.948;2023-05-10T05:26:23;2.13;;;1.23;;
77495;SDS011;66600;48.378;9.948;2023-05-10T05:28:48;2.47;;;1.17;;
77495;SDS011;66600;48.378;9.948;2023-05-10T05:31:16;2.97;;;1.73;;
77495;SDS011;66600;48.378;9.948;2023-05-10T05:33:42;2.90;;;1.20;;
77495;SDS011;66600;48.378;9.948;2023-05-10T05:36:08;6.47;;;1.60;;
77495;SDS011;66600;48.378;9.948;2023-05-10T05:38:33;1.52;;;1.10;;
77495;SDS011;66600;48.378;9.948;2023-05-10T05:40:58;1.58;;;1.20;;
77495;SDS011;66600;48.378;9.948;2023-05-10T05:43:24;4.45;;;1.05;;
77495;SDS011;66600;48.378;9.948;2023-05-10T05:45:51;1.65;;;1.15;;
77495;SDS011;66600;48.378;9.948;2023-05-10T05:48:17;2.00;;;1.10;;
77495;SDS011;66600;48.378;9.948;2023-05-10T05:50:42;1.75;;;1.17;;
77495;SDS011;66600;48.378;9.948;2023-05-10T05:53:08;1.80;;;1.40;;
77495;SDS011;66600;48.378;9.948;2023-05-10T05:55:33;2.05;;;1.55;;
77495;SDS011;66600;48.378;9.948;2023-05-10T05:57:59;3.50;;;1.30;;
77495;SDS011;66600;48.378;9.948;2023-05-10T06:00:24;1.77;;;1.23;;
77495;SDS011;66600;48.378;9.948;2023-05-10T06:02:49;3.70;;;1.33;;
77495;SDS011;66600;48.378;9.948;2023-05-10T06:05:15;3.88;;;1.50;;
77495;SDS011;66600;48.378;9.948;2023-05-10T06:07:40;2.05;;;1.40;;
77495;SDS011;66600;48.378;9.948;2023-05-10T06:10:07;2.38;;;1.30;;
77495;SDS011;66600;48.378;9.948;2023-05-10T06:12:33;1.40;;;1.17;;
77495;SDS011;66600;48.378;9.948;2023-05-10T06:14:58;2.85;;;1.10;;
77495;SDS011;66600;48.378;9.948;2023-05-10T06:17:24;3.33;;;1.42;;
77495;SDS011;66600;48.378;9.948;2023-05-10T06:19:50;3.17;;;1.33;;
77495;SDS011;66600;48.378;9.948;2023-05-10T06:22:15;1.83;;;1.50;;
77495;SDS011;66600;48.378;9.948;2023-05-10T06:24:40;1.65;;;1.27;;
77495;SDS011;66600;48.378;9.948;2023-05-10T06:27:06;2.60;;;1.40;;
77495;SDS011;66600;48.378;9.948;2023-05-10T06:29:31;3.15;;;1.33;;
77495;SDS011;66600;48.378;9.948;2023-05-10T06:31:57;3.35;;;1.15;;
77495;SDS011;66600;48.378;9.948;2023-05-10T06:34:26;1.77;;;1.27;;
77495;SDS011;66600;48.378;9.948;2023-05-10T06:36:51;4.65;;;1.50;;
77495;SDS011;66600;48.378;9.948;2023-05-10T06:39:16;1.60;;;1.20;;
77495;SDS011;66600;48.378;9.948;2023-05-10T06:41:42;3.00;;;1.23;;
77495;SDS011;66600;48.378;9.948;2023-05-10T06:44:07;2.05;;;1.00;;
77495;SDS011;66600;48.378;9.948;2023-05-10T06:46:33;2.08;;;1.40;;
77495;SDS011;66600;48.378;9.948;2023-05-10T06:48:58;3.55;;;1.30;;
77495;SDS011;66600;48.378;9.948;2023-05-10T06:51:24;2.88;;;1.20;;
77495;SDS011;66600;48.378;9.948;2023-05-10T06:53:49;1.90;;;1.20;;
77495;SDS011;66600;48.378;9.948;2023-05-10T06:56:14;3.80;;;1.40;;
77495;SDS011;66600;48.378;9.948;2023-05-10T06:58:40;6.35;;;1.60;;
77495;SDS011;66600;48.378;9.948;2023-05-10T07:01:05;1.70;;;1.20;;
77495;SDS011;66600;48.378;9.948;2023-05-10T07:03:31;1.50;;;1.30;;
77495;SDS011;66600;48.378;9.948;2023-05-10T07:06:00;2.47;;;1.48;;
77495;SDS011;66600;48.378;9.948;2023-05-10T07:08:27;1.63;;;1.23;;
77495;SDS011;66600;48.378;9.948;2023-05-10T07:10:53;2.85;;;1.30;;
77495;SDS011;66600;48.378;9.948;2023-05-10T07:13:33;3.15;;;1.20;;
77495;SDS011;66600;48.378;9.948;2023-05-10T07:15:59;2.08;;;1.30;;
77495;SDS011;66600;48.378;9.948;2023-05-10T07:18:25;2.95;;;1.40;;
77495;SDS011;66600;48.378;9.948;2023-05-10T07:20:50;2.38;;;1.20;;
77495;SDS011;66600;48.378;9.948;2023-05-10T07:23:16;3.33;;;1.40;;
77495;SDS011;66600;48.378;9.948;2023-05-10T07:25:44;3.42;;;1.23;;
77495;SDS011;66600;48.378;9.948;2023-05-10T07:28:10;3.40;;;1.40;;
77495;SDS011;66600;48.378;9.948;2023-05-10T07:30:36;3.75;;;1.40;;
77495;SDS011;66600;48.378;9.948;2023-05-10T07:33:01;2.63;;;1.25;;
77495;SDS011;66600;48.378;9.948;2023-05-10T07:35:26;2.92;;;1.50;;
77495;SDS011;66600;48.378;9.948;2023-05-10T07:37:52;2.78;;;1.38;;
77495;SDS011;66600;48.378;9.948;2023-05-10T07:40:17;1.85;;;1.27;;
77495;SDS011;66600;48.378;9.948;2023-05-10T07:42:43;3.53;;;1.60;;
77495;SDS011;66600;48.378;9.948;2023-05-10T07:45:08;4.03;;;1.70;;
77495;SDS011;66600;48.378;9.948;2023-05-10T07:47:34;2.55;;;1.30;;
77495;SDS011;66600;48.378;9.948;2023-05-10T07:49:59;5.30;;;2.05;;
77495;SDS011;66600;48.378;9.948;2023-05-10T07:52:24;6.57;;;2.20;;
77495;SDS011;66600;48.378;9.948;2023-05-10T07:54:50;3.35;;;1.70;;
77495;SDS011;66600;48.378;9.948;2023-05-10T07:57:18;4.72;;;1.80;;
77495;SDS011;66600;48.378;9.948;2023-05-10T07:59:49;4.15;;;1.75;;
77495;SDS011;66600;48.378;9.948;2023-05-10T08:02:14;3.88;;;1.88;;
77495;SDS011;66600;48.378;9.948;2023-05-10T08:04:39;3.88;;;1.60;;
77495;SDS011;66600;48.378;9.948;2023-05-10T08:07:05;3.42;;;1.50;;
77495;SDS011;66600;48.378;9.948;2023-05-10T08:09:30;4.55;;;1.70;;
77495;SDS011;66600;48.378;9.948;2023-05-10T08:11:55;4.13;;;1.42;;
77495;SDS011;66600;48.378;9.948;2023-05-10T08:14:21;3.90;;;1.60;;
77495;SDS011;66600;48.378;9.948;2023-05-10T08:16:46;3.47;;;1.70;;
77495;SDS011;66600;48.378;9.948;2023-05-10T08:19:12;3.10;;;1.25;;
77495;SDS011;66600;48.378;9.948;2023-05-10T08:21:37;2.45;;;1.15;;
77495;SDS011;66600;48.378;9.948;2023-05-10T08:24:03;2.63;;;1.42;;
77495;SDS011;66600;48.378;9.948;2023-05-10T08:26:28;2.33;;;1.13;;
77495;SDS011;66600;48.378;9.948;2023-05-10T08:28:53;1.75;;;1.02;;
77495;SDS011;66600;48.378;9.948;2023-05-10T08:31:19;1.42;;;1.02;;
77495;SDS011;66600;48.378;9.948;2023-05-10T08:33:44;1.67;;;0.93;;
77495;SDS011;66600;48.378;9.948;2023-05-10T08:36:09;3.08;;;1.08;;
77495;SDS011;66600;48.378;9.948;2023-05-10T08:38:35;1.77;;;1.00;;
77495;SDS011;66600;48.378;9.948;2023-05-10T08:41:01;1.35;;;0.82;;
77495;SDS011;66600;48.378;9.948;2023-05-10T08:43:27;1.50;;;0.90;;
77495;SDS011;66600;48.378;9.948;2023-05-10T08:45:54;1.77;;;1.20;;
77495;SDS011;66600;48.378;9.948;2023-05-10T08:48:21;1.38;;;0.90;;
77495;SDS011;66600;48.378;9.948;2023-05-10T08:50:48;2.25;;;1.10;;
77495;SDS011;66600;48.378;9.948;2023-05-10T08:53:17;2.15;;;0.70;;
77495;SDS011;66600;48.378;9.948;2023-05-10T08:55:44;3.10;;;1.20;;
77495;SDS011;66600;48.378;9.948;2023-05-10T08:58:09;1.92;;;0.68;;
77495;SDS011;66600;48.378;9.948;2023-05-10T09:00:35;3.67;;;0.80;;
77495;SDS011;66600;48.378;9.948;2023-05-10T09:03:02;1.58;;;0.85;;
77495;SDS011;66600;48.378;9.948;2023-05-10T09:05:29;2.83;;;0.90;;
77495;SDS011;66600;48.378;9.948;2023-05-10T09:07:55;0.98;;;0.70;;
77495;SDS011;66600;48.378;9.948;2023-05-10T09:10:20;2.65;;;1.00;;
77495;SDS011;66600;48.378;9.948;2023-05-10T09:12:46;2.25;;;0.60;;
77495;SDS011;66600;48.378;9.948;2023-05-10T09:15:14;2.38;;;0.90;;
77495;SDS011;66600;48.378;9.948;2023-05-10T09:17:40;2.75;;;1.23;;
77495;SDS011;66600;48.378;9.948;2023-05-10T09:20:07;1.30;;;0.98;;
77495;SDS011;66600;48.378;9.948;2023-05-10T09:22:33;1.83;;;0.80;;
77495;SDS011;66600;48.378;9.948;2023-05-10T09:27:31;2.38;;;1.10;;
77495;SDS011;66600;48.378;9.948;2023-05-10T09:29:57;2.13;;;1.00;;
77495;SDS011;66600;48.378;9.948;2023-05-10T09:32:22;1.77;;;1.10;;
77495;SDS011;66600;48.378;9.948;2023-05-10T09:35:11;2.95;;;1.20;;
77495;SDS011;66600;48.378;9.948;2023-05-10T09:37:36;1.48;;;0.95;;
77495;SDS011;66600;48.378;9.948;2023-05-10T09:40:06;1.70;;;1.15;;
77495;SDS011;66600;48.378;9.948;2023-05-10T09:42:33;1.83;;;1.00;;
77495;SDS011;66600;48.378;9.948;2023-05-10T09:45:02;1.80;;;0.73;;
77495;SDS011;66600;48.378;9.948;2023-05-10T09:47:32;1.73;;;0.75;;
77495;SDS011;66600;48.378;9.948;2023-05-10T09:49:58;1.38;;;0.90;;
77495;SDS011;66600;48.378;9.948;2023-05-10T09:52:28;1.73;;;0.80;;
77495;SDS011;66600;48.378;9.948;2023-05-10T09:55:11;2.08;;;0.90;;
77495;SDS011;66600;48.378;9.948;2023-05-10T09:57:37;2.15;;;0.90;;
77495;SDS011;66600;48.378;9.948;2023-05-10T10:00:02;0.65;;;0.50;;
77495;SDS011;66600;48.378;9.948;2023-05-10T10:02:30;0.50;;;0.50;;
77495;SDS011;66600;48.378;9.948;2023-05-10T10:04:56;1.25;;;0.60;;
77495;SDS011;66600;48.378;9.948;2023-05-10T10:07:22;0.55;;;0.55;;
77495;SDS011;66600;48.378;9.948;2023-05-10T10:09:51;1.88;;;0.70;;
77495;SDS011;66600;48.378;9.948;2023-05-10T10:12:18;0.50;;;0.50;;
77495;SDS011;66600;48.378;9.948;2023-05-10T10:14:44;0.85;;;0.60;;
77495;SDS011;66600;48.378;9.948;2023-05-10T10:17:11;0.32;;;0.32;;
77495;SDS011;66600;48.378;9.948;2023-05-10T10:19:37;0.57;;;0.40;;
77495;SDS011;66600;48.378;9.948;2023-05-10T10:22:02;1.13;;;0.70;;
77495;SDS011;66600;48.378;9.948;2023-05-10T10:24:28;0.50;;;0.40;;
77495;SDS011;66600;48.378;9.948;2023-05-10T10:26:54;0.93;;;0.40;;
77495;SDS011;66600;48.378;9.948;2023-05-10T10:29:35;0.73;;;0.50;;
77495;SDS011;66600;48.378;9.948;2023-05-10T10:32:22;2.53;;;0.60;;
77495;SDS011;66600;48.378;9.948;2023-05-10T10:34:53;0.55;;;0.40;;
77495;SDS011;66600;48.378;9.948;2023-05-10T10:37:19;1.48;;;0.40;;
77495;SDS011;66600;48.378;9.948;2023-05-10T10:39:45;0.77;;;0.50;;
77495;SDS011;66600;48.378;9.948;2023-05-10T10:42:13;0.57;;;0.40;;
77495;SDS011;66600;48.378;9.948;2023-05-10T10:44:38;1.10;;;0.50;;
77495;SDS011;66600;48.378;9.948;2023-05-10T10:49:37;1.30;;;0.50;;
77495;SDS011;66600;48.378;9.948;2023-05-10T10:52:12;0.60;;;0.50;;
77495;SDS011;66600;48.378;9.948;2023-05-10T10:54:39;4.00;;;0.60;;
77495;SDS011;66600;48.378;9.948;2023-05-10T10:57:11;0.60;;;0.50;;
77495;SDS011;66600;48.378;9.948;2023-05-10T10:59:44;2.03;;;0.82;;
77495;SDS011;66600;48.378;9.948;2023-05-10T11:02:10;0.50;;;0.40;;
77495;SDS011;66600;48.378;9.948;2023-05-10T11:04:59;0.40;;;0.40;;
77495;SDS011;66600;48.378;9.948;2023-05-10T11:07:25;1.95;;;0.70;;
77495;SDS011;66600;48.378;9.948;2023-05-10T11:09:51;2.55;;;0.60;;
77495;SDS011;66600;48.378;9.948;2023-05-10T11:12:16;0.55;;;0.47;;
77495;SDS011;66600;48.378;9.948;2023-05-10T11:14:42;1.80;;;0.50;;
77495;SDS011;66600;48.378;9.948;2023-05-10T11:20:10;1.10;;;0.47;;
77495;SDS011;66600;48.378;9.948;2023-05-10T11:22:49;0.40;;;0.40;;
77495;SDS011;66600;48.378;9.948;2023-05-10T11:25:17;0.93;;;0.70;;
77495;SDS011;66600;48.378;9.948;2023-05-10T11:27:43;1.83;;;0.70;;
77495;SDS011;66600;48.378;9.948;2023-05-10T11:30:10;1.77;;;1.13;;
77495;SDS011;66600;48.378;9.948;2023-05-10T11:32:39;1.33;;;1.02;;
77495;SDS011;66600;48.378;9.948;2023-05-10T11:35:08;2.25;;;1.00;;
77495;SDS011;66600;48.378;9.948;2023-05-10T11:37:35;1.92;;;0.90;;
77495;SDS011;66600;48.378;9.948;2023-05-10T11:40:00;1.20;;;0.80;;
77495;SDS011;66600;48.378;9.948;2023-05-10T11:42:27;1.85;;;0.80;;
77495;SDS011;66600;48.378;9.948;2023-05-10T11:44:53;0.90;;;0.80;;
77495;SDS011;66600;48.378;9.948;2023-05-10T11:47:18;1.23;;;0.90;;
77495;SDS011;66600;48.378;9.948;2023-05-10T11:49:44;2.53;;;0.90;;
77495;SDS011;66600;48.378;9.948;2023-05-10T11:52:10;2.38;;;0.90;;
77495;SDS011;66600;48.378;9.948;2023-05-10T11:54:44;1.47;;;0.80;;
77495;SDS011;66600;48.378;9.948;2023-05-10T11:57:10;1.98;;;1.00;;
77495;SDS011;66600;48.378;9.948;2023-05-10T11:59:36;1.02;;;0.60;;
77495;SDS011;66600;48.378;9.948;2023-05-10T12:02:01;4.47;;;0.70;;
77495;SDS011;66600;48.378;9.948;2023-05-10T12:04:28;0.63;;;0.60;;
77495;SDS011;66600;48.378;9.948;2023-05-10T12:06:54;2.08;;;0.70;;
77495;SDS011;66600;48.378;9.948;2023-05-10T12:09:19;0.98;;;0.60;;
77495;SDS011;66600;48.378;9.948;2023-05-10T12:11:45;1.50;;;0.60;;
77495;SDS011;66600;48.378;9.948;2023-05-10T12:14:10;3.05;;;0.88;;
77495;SDS011;66600;48.378;9.948;2023-05-10T12:16:36;1.55;;;0.65;;
77495;SDS011;66600;48.378;9.948;2023-05-10T12:19:01;1.90;;;0.80;;
77495;SDS011;66600;48.378;9.948;2023-05-10T12:21:27;1.92;;;1.10;;
77495;SDS011;66600;48.378;9.948;2023-05-10T12:23:56;1.07;;;0.90;;
77495;SDS011;66600;48.378;9.948;2023-05-10T12:26:25;2.22;;;1.00;;
77495;SDS011;66600;48.378;9.948;2023-05-10T12:28:54;2.47;;;1.15;;
77495;SDS011;66600;48.378;9.948;2023-05-10T12:31:20;1.20;;;1.00;;
77495;SDS011;66600;48.378;9.948;2023-05-10T12:33:45;5.38;;;1.40;;
77495;SDS011;66600;48.378;9.948;2023-05-10T12:36:12;1.60;;;1.20;;
77495;SDS011;66600;48.378;9.948;2023-05-10T12:38:39;1.30;;;0.90;;
77495;SDS011;66600;48.378;9.948;2023-05-10T12:41:11;1.38;;;1.00;;
77495;SDS011;66600;48.378;9.948;2023-05-10T12:43:38;2.33;;;1.10;;
77495;SDS011;66600;48.378;9.948;2023-05-10T12:46:05;2.05;;;0.90;;
77495;SDS011;66600;48.378;9.948;2023-05-10T12:48:34;2.08;;;1.00;;
77495;SDS011;66600;48.378;9.948;2023-05-10T12:51:01;1.15;;;1.05;;
77495;SDS011;66600;48.378;9.948;2023-05-10T12:53:27;2.17;;;1.00;;
77495;SDS011;66600;48.378;9.948;2023-05-10T12:55:52;1.90;;;1.17;;
77495;SDS011;66600;48.378;9.948;2023-05-10T12:58:18;1.60;;;1.10;;
77495;SDS011;66600;48.378;9.948;2023-05-10T13:00:44;1.70;;;1.20;;
77495;SDS011;66600;48.378;9.948;2023-05-10T13:03:09;1.77;;;1.23;;
77495;SDS011;66600;48.378;9.948;2023-05-10T13:05:35;1.80;;;1.40;;
77495;SDS011;66600;48.378;9.948;2023-05-10T13:08:01;2.88;;;1.30;;
77495;SDS011;66600;48.378;9.948;2023-05-10T13:10:27;2.38;;;1.63;;
77495;SDS011;66600;48.378;9.948;2023-05-10T13:12:54;2.17;;;1.42;;
77495;SDS011;66600;48.378;9.948;2023-05-10T13:15:19;1.83;;;1.30;;
77495;SDS011;66600;48.378;9.948;2023-05-10T13:17:45;2.60;;;1.27;;
77495;SDS011;66600;48.378;9.948;2023-05-10T13:20:10;1.95;;;1.10;;
77495;SDS011;66600;48.378;9.948;2023-05-10T13:22:36;2.88;;;1.20;;
77495;SDS011;66600;48.378;9.948;2023-05-10T13:25:01;6.30;;;3.13;;
77495;SDS011;66600;48.378;9.948;2023-05-10T13:27:27;2.05;;;1.05;;
77495;SDS011;66600;48.378;9.948;2023-05-10T13:29:53;3.95;;;2.55;;
77495;SDS011;66600;48.378;9.948;2023-05-10T13:32:18;4.85;;;2.90;;
77495;SDS011;66600;48.378;9.948;2023-05-10T13:34:43;7.18;;;3.10;;
77495;SDS011;66600;48.378;9.948;2023-05-10T13:37:09;3.00;;;1.80;;
77495;SDS011;66600;48.378;9.948;2023-05-10T13:39:34;2.50;;;1.00;;
77495;SDS011;66600;48.378;9.948;2023-05-10T13:42:02;1.75;;;1.00;;
77495;SDS011;66600;48.378;9.948;2023-05-10T13:44:28;2.30;;;1.20;;
77495;SDS011;66600;48.378;9.948;2023-05-10T13:47:02;1.80;;;1.10;;
77495;SDS011;66600;48.378;9.948;2023-05-10T13:49:28;6.20;;;4.45;;
77495;SDS011;66600;48.378;9.948;2023-05-10T13:51:53;3.00;;;1.50;;
77495;SDS011;66600;48.378;9.948;2023-05-10T13:54:18;2.50;;;1.73;;
77495;SDS011;66600;48.378;9.948;2023-05-10T13:56:45;2.53;;;1.58;;
77495;SDS011;66600;48.378;9.948;2023-05-10T13:59:12;2.45;;;1.13;;
77495;SDS011;66600;48.378;9.948;2023-05-10T14:01:37;1.85;;;1.10;;
77495;SDS011;66600;48.378;9.948;2023-05-10T14:04:03;4.05;;;2.45;;
77495;SDS011;66600;48.378;9.948;2023-05-10T14:06:28;3.17;;;1.60;;
77495;SDS011;66600;48.378;9.948;2023-05-10T14:08:53;1.98;;;1.35;;
77495;SDS011;66600;48.378;9.948;2023-05-10T14:11:19;2.58;;;1.15;;
77495;SDS011;66600;48.378;9.948;2023-05-10T14:13:45;2.75;;;1.50;;
77495;SDS011;66600;48.378;9.948;2023-05-10T14:16:13;2.33;;;1.30;;
77495;SDS011;66600;48.378;9.948;2023-05-10T14:18:39;2.75;;;1.48;;
77495;SDS011;66600;48.378;9.948;2023-05-10T14:21:04;1.42;;;1.20;;
77495;SDS011;66600;48.378;9.948;2023-05-10T14:23:30;5.55;;;1.45;;
77495;SDS011;66600;48.378;9.948;2023-05-10T14:25:55;2.70;;;1.40;;
77495;SDS011;66600;48.378;9.948;2023-05-10T14:28:21;2.53;;;1.70;;
77495;SDS011;66600;48.378;9.948;2023-05-10T14:30:47;2.28;;;1.33;;
77495;SDS011;66600;48.378;9.948;2023-05-10T14:33:13;1.75;;;1.15;;
77495;SDS011;66600;48.378;9.948;2023-05-10T14:35:38;2.00;;;1.40;;
77495;SDS011;66600;48.378;9.948;2023-05-10T14:38:04;2.78;;;1.60;;
77495;SDS011;66600;48.378;9.948;2023-05-10T14:40:30;2.30;;;1.40;;
77495;SDS011;66600;48.378;9.948;2023-05-10T14:42:55;4.25;;;1.58;;
77495;SDS011;66600;48.378;9.948;2023-05-10T14:45:21;2.92;;;1.58;;
77495;SDS011;66600;48.378;9.948;2023-05-10T14:47:47;5.63;;;2.15;;
77495;SDS011;66600;48.378;9.948;2023-05-10T14:50:12;4.85;;;1.70;;
77495;SDS011;66600;48.378;9.948;2023-05-10T14:52:38;2.50;;;1.50;;
77495;SDS011;66600;48.378;9.948;2023-05-10T14:55:03;3.85;;;1.60;;
77495;SDS011;66600;48.378;9.948;2023-05-10T14:57:29;2.67;;;1.50;;
77495;SDS011;66600;48.378;9.948;2023-05-10T14:59:55;5.72;;;2.67;;
77495;SDS011;66600;48.378;9.948;2023-05-10T15:02:21;3.10;;;1.63;;
77495;SDS011;66600;48.378;9.948;2023-05-10T15:04:46;4.10;;;1.85;;
77495;SDS011;66600;48.378;9.948;2023-05-10T15:07:11;3.03;;;1.30;;
77495;SDS011;66600;48.378;9.948;2023-05-10T15:09:39;3.63;;;1.70;;
77495;SDS011;66600;48.378;9.948;2023-05-10T15:12:04;3.33;;;1.83;;
77495;SDS011;66600;48.378;9.948;2023-05-10T15:14:29;3.20;;;1.42;;
77495;SDS011;66600;48.378;9.948;2023-05-10T15:16:55;2.38;;;1.50;;
77495;SDS011;66600;48.378;9.948;2023-05-10T15:19:20;2.22;;;1.60;;